Time;durP1;ratioP1;P1;durP2;ratioP2;P2;SDS_P1;SDS_P2;PMS_P1;PMS_P2;Temp;Humidity;BMP_temperature;BMP_pressure;BME280_temperature;BME280_humidity;BME280_pressure;Samples;Min_cycle;Max_cycle;Signal;HPM_P1;HPM_P2
2021/06/29 00:01:14;;;;;;;98.37;57.60;;;19.40;99.90;;;;;;5094290;28;20198;-78
2021/06/29 00:03:40;;;;;;;102.27;59.13;;;19.40;99.90;;;;;;5094270;28;20187;-78
2021/06/29 00:06:07;;;;;;;99.90;56.73;;;19.40;99.90;;;;;;5093994;28;20278;-78
2021/06/29 00:08:35;;;;;;;101.40;57.80;;;19.40;99.90;;;;;;5094218;28;20222;-78
2021/06/29 00:11:02;;;;;;;104.23;59.03;;;19.40;99.90;;;;;;5093648;28;20301;-78
2021/06/29 00:13:29;;;;;;;107.10;60.10;;;19.40;99.90;;;;;;5093883;28;20286;-77
2021/06/29 00:15:56;;;;;;;97.20;58.20;;;19.40;99.90;;;;;;5093904;28;20214;-77
2021/06/29 00:18:23;;;;;;;92.97;55.63;;;19.10;99.90;;;;;;5093647;28;20241;-78
2021/06/29 00:20:50;;;;;;;104.10;57.70;;;19.20;99.90;;;;;;5094312;28;20237;-78
2021/06/29 00:23:17;;;;;;;102.40;57.97;;;19.20;99.90;;;;;;5094558;28;20201;-78
2021/06/29 00:25:46;;;;;;;98.77;56.30;;;19.30;99.90;;;;;;5093380;28;20226;-78
2021/06/29 00:28:14;;;;;;;106.30;57.60;;;19.40;99.90;;;;;;5094229;28;20242;-78
2021/06/29 00:30:41;;;;;;;107.67;59.47;;;19.50;99.90;;;;;;5093316;28;20277;-79
2021/06/29 00:33:08;;;;;;;104.27;60.03;;;19.50;99.90;;;;;;5093938;28;20195;-77
2021/06/29 00:35:35;;;;;;;102.90;58.53;;;19.40;99.90;;;;;;5093920;28;20236;-78
2021/06/29 00:38:02;;;;;;;104.27;58.33;;;19.40;99.90;;;;;;5087427;28;20188;-78
2021/06/29 00:40:30;;;;;;;103.10;61.23;;;19.40;99.90;;;;;;5079543;28;20282;-78
2021/06/29 00:42:58;;;;;;;107.80;61.60;;;19.40;99.90;;;;;;5072752;28;20288;-78
2021/06/29 00:45:25;;;;;;;107.97;61.97;;;19.40;99.90;;;;;;5073809;28;20192;-78
2021/06/29 00:47:52;;;;;;;100.47;60.37;;;19.20;99.90;;;;;;5073640;28;20231;-78
2021/06/29 00:50:18;;;;;;;103.13;60.40;;;19.20;99.90;;;;;;5073736;28;20282;-78
2021/06/29 00:52:45;;;;;;;106.50;60.63;;;19.20;99.90;;;;;;5073868;28;20231;-78
2021/06/29 00:55:14;;;;;;;105.20;59.37;;;19.20;99.90;;;;;;5073327;28;20657;-79
2021/06/29 00:57:43;;;;;;;115.07;63.53;;;19.20;99.90;;;;;;5073247;28;20230;-79
2021/06/29 01:00:13;;;;;;;116.83;64.80;;;19.30;99.90;;;;;;5073387;28;20196;-77
2021/06/29 01:02:40;;;;;;;114.77;62.73;;;19.40;99.90;;;;;;5073850;28;20207;-78
2021/06/29 01:05:08;;;;;;;117.37;62.80;;;19.30;99.90;;;;;;5073166;28;20282;-77
2021/06/29 01:07:36;;;;;;;120.73;65.37;;;19.40;99.90;;;;;;5073144;28;20633;-78
2021/06/29 01:10:06;;;;;;;117.90;65.00;;;19.20;99.90;;;;;;5073505;28;20282;-78
2021/06/29 01:12:33;;;;;;;120.63;64.93;;;19.20;99.90;;;;;;5073026;28;20227;-78
2021/06/29 01:14:59;;;;;;;124.60;68.83;;;19.30;99.90;;;;;;5073175;28;20223;-78
2021/06/29 01:17:28;;;;;;;122.47;65.63;;;19.40;99.90;;;;;;5072865;28;20207;-79
2021/06/29 01:19:55;;;;;;;128.40;68.87;;;19.50;99.90;;;;;;5072950;28;20665;-78
2021/06/29 01:22:26;;;;;;;123.73;66.90;;;19.50;99.90;;;;;;5072836;28;20211;-78
2021/06/29 01:24:55;;;;;;;136.27;69.57;;;19.40;99.90;;;;;;5072961;28;20199;-78
2021/06/29 01:27:40;;;;;;;131.47;69.50;;;19.50;99.90;;;;;;5072768;28;20196;-78
2021/06/29 01:32:52;;;;;;;145.33;73.07;;;19.40;99.90;;;;;;5072450;28;20214;-78
2021/06/29 01:35:19;;;;;;;145.07;75.20;;;19.40;99.90;;;;;;5086801;28;20327;-81
2021/06/29 01:37:49;;;;;;;155.87;75.20;;;19.50;99.90;;;;;;5092779;28;20249;-81
2021/06/29 01:40:19;;;;;;;144.80;73.83;;;19.40;99.90;;;;;;5094979;28;20665;-79
2021/06/29 01:42:52;;;;;;;138.73;71.57;;;19.40;99.90;;;;;;5092920;28;20672;-80
2021/06/29 01:45:19;;;;;;;144.13;72.17;;;19.50;99.90;;;;;;5093590;28;20202;-79
2021/06/29 01:47:57;;;;;;;147.23;73.73;;;19.50;99.90;;;;;;5093263;28;20387;-80
2021/06/29 01:50:24;;;;;;;151.17;75.67;;;19.50;99.90;;;;;;5093751;28;20530;-80
2021/06/29 01:52:57;;;;;;;152.20;76.47;;;19.50;99.90;;;;;;5093237;28;20318;-79
2021/06/29 01:55:25;;;;;;;145.07;75.50;;;19.50;99.90;;;;;;5092913;28;20218;-80
2021/06/29 01:57:52;;;;;;;148.97;76.90;;;19.50;99.90;;;;;;5093300;28;20226;-79
2021/06/29 02:00:20;;;;;;;135.97;73.47;;;19.60;99.90;;;;;;5093129;28;20231;-80
2021/06/29 02:02:47;;;;;;;144.77;74.80;;;19.60;99.90;;;;;;5093185;28;20202;-79
2021/06/29 02:05:15;;;;;;;151.47;77.83;;;19.60;99.90;;;;;;5093507;28;20190;-80
2021/06/29 02:07:42;;;;;;;147.33;76.90;;;19.60;99.90;;;;;;5093496;28;20202;-82
2021/06/29 02:10:12;;;;;;;149.03;79.37;;;19.50;99.90;;;;;;5093552;28;20207;-82
2021/06/29 02:12:40;;;;;;;151.10;77.10;;;19.40;99.90;;;;;;5092809;28;20261;-81
2021/06/29 02:15:07;;;;;;;141.53;73.67;;;19.40;99.90;;;;;;5093325;28;20202;-82
2021/06/29 02:17:34;;;;;;;115.23;60.33;;;19.40;99.90;;;;;;5092916;28;20241;-80
2021/06/29 02:20:01;;;;;;;109.53;56.70;;;19.40;99.90;;;;;;5092892;28;20669;-82
2021/06/29 02:22:29;;;;;;;94.63;50.07;;;19.20;99.90;;;;;;5092913;28;20539;-80
2021/06/29 02:24:55;;;;;;;92.13;49.67;;;19.20;99.90;;;;;;5092816;28;20244;-80
2021/06/29 02:27:24;;;;;;;101.23;51.63;;;19.20;99.90;;;;;;5092796;28;20287;-81
2021/06/29 02:29:51;;;;;;;85.87;45.33;;;19.20;99.90;;;;;;5093269;28;20240;-81
2021/06/29 02:32:18;;;;;;;74.27;41.40;;;19.10;99.90;;;;;;5092986;28;20313;-82
2021/06/29 02:34:45;;;;;;;61.90;35.77;;;19.10;99.90;;;;;;5092679;28;20566;-81
2021/06/29 02:37:12;;;;;;;52.97;30.90;;;19.20;99.90;;;;;;5092804;28;20633;-81
2021/06/29 02:39:39;;;;;;;52.07;30.37;;;19.10;99.90;;;;;;5094322;28;20203;-80
2021/06/29 02:42:07;;;;;;;52.00;29.57;;;19.00;99.90;;;;;;5103938;28;20222;-81
2021/06/29 02:44:36;;;;;;;42.20;26.60;;;18.90;99.90;;;;;;5092821;28;20202;-83
2021/06/29 02:47:04;;;;;;;37.90;24.40;;;18.90;99.90;;;;;;5092770;28;20615;-83
2021/06/29 02:49:31;;;;;;;34.70;22.43;;;18.90;99.90;;;;;;5092575;28;20672;-82
2021/06/29 02:51:59;;;;;;;30.60;19.83;;;18.90;99.90;;;;;;5093079;28;20218;-84
2021/06/29 02:54:26;;;;;;;30.83;20.10;;;18.90;99.90;;;;;;5092644;28;20301;-82
2021/06/29 02:56:53;;;;;;;33.30;20.87;;;18.80;99.90;;;;;;5092671;28;20286;-83
2021/06/29 02:59:20;;;;;;;34.90;21.60;;;18.80;99.90;;;;;;5093046;28;20272;-84
2021/06/29 03:01:48;;;;;;;33.10;21.60;;;18.80;99.90;;;;;;5093032;28;20624;-81
2021/06/29 03:04:15;;;;;;;32.33;20.17;;;18.70;99.90;;;;;;5093199;28;20218;-82
2021/06/29 03:06:42;;;;;;;35.00;21.60;;;18.70;99.90;;;;;;5094238;28;20256;-82
2021/06/29 03:09:10;;;;;;;31.90;19.73;;;18.70;99.90;;;;;;5096406;28;20194;-83
2021/06/29 03:11:37;;;;;;;29.70;19.00;;;18.60;99.90;;;;;;5096519;28;20664;-82
2021/06/29 03:14:05;;;;;;;26.90;16.80;;;18.60;99.90;;;;;;5096445;28;20202;-83
2021/06/29 03:16:32;;;;;;;23.77;16.10;;;18.60;99.90;;;;;;5096440;28;20207;-84
2021/06/29 03:19:00;;;;;;;19.87;11.63;;;18.60;99.90;;;;;;5096486;28;20222;-84
2021/06/29 03:21:28;;;;;;;19.23;12.00;;;18.60;99.90;;;;;;5095904;28;20576;-87
2021/06/29 03:23:55;;;;;;;16.83;11.03;;;18.50;99.90;;;;;;5096255;28;20203;-83
2021/06/29 03:26:23;;;;;;;12.97;9.03;;;18.50;99.90;;;;;;5096440;28;20207;-86
2021/06/29 03:28:50;;;;;;;15.10;8.53;;;18.30;99.90;;;;;;5096290;28;20230;-84
2021/06/29 03:31:17;;;;;;;15.47;7.97;;;18.30;99.90;;;;;;5096149;28;20244;-85
2021/06/29 03:33:44;;;;;;;10.47;7.57;;;18.20;99.90;;;;;;5095693;28;20277;-83
2021/06/29 03:36:13;;;;;;;9.33;7.07;;;18.20;99.90;;;;;;5095920;28;20211;-85
2021/06/29 03:38:40;;;;;;;8.30;6.13;;;18.20;99.90;;;;;;5096215;28;20215;-85
2021/06/29 03:41:07;;;;;;;13.30;5.80;;;18.10;99.90;;;;;;5096234;28;20277;-84
2021/06/29 03:43:36;;;;;;;7.83;5.73;;;18.10;99.90;;;;;;5095965;28;20203;-83
2021/06/29 03:46:04;;;;;;;7.97;5.07;;;18.10;99.90;;;;;;5084633;28;20595;-86
2021/06/29 03:48:31;;;;;;;5.27;4.50;;;18.00;99.90;;;;;;5095496;28;20195;-86
2021/06/29 03:50:58;;;;;;;7.47;4.17;;;17.90;99.90;;;;;;5095773;28;20199;-87
2021/06/29 03:53:26;;;;;;;6.20;3.67;;;17.80;99.90;;;;;;5095604;28;20597;-83
2021/06/29 03:55:54;;;;;;;4.40;3.87;;;17.70;99.90;;;;;;5096004;28;20230;-83
2021/06/29 03:58:21;;;;;;;6.60;3.77;;;17.70;99.90;;;;;;5094871;28;20242;-83
2021/06/29 04:00:48;;;;;;;7.07;3.33;;;17.70;99.90;;;;;;5095599;28;20432;-82
2021/06/29 04:03:15;;;;;;;10.73;4.00;;;17.70;99.90;;;;;;5095377;28;20285;-83
2021/06/29 04:05:42;;;;;;;4.17;3.03;;;17.80;99.90;;;;;;5095470;28;20222;-82
2021/06/29 04:08:09;;;;;;;4.60;3.40;;;17.70;99.90;;;;;;5095243;28;20202;-82
2021/06/29 04:10:37;;;;;;;5.00;2.90;;;17.80;99.90;;;;;;5095608;28;20234;-84
2021/06/29 04:13:04;;;;;;;4.23;2.63;;;17.80;99.90;;;;;;5095233;28;20222;-82
2021/06/29 04:15:31;;;;;;;4.10;2.93;;;17.90;99.90;;;;;;5095504;28;20709;-82
2021/06/29 04:17:59;;;;;;;5.50;2.63;;;18.00;99.90;;;;;;5094765;28;20661;-83
2021/06/29 04:20:26;;;;;;;2.93;2.50;;;17.90;99.90;;;;;;5095208;28;20203;-82
2021/06/29 04:22:53;;;;;;;3.47;2.70;;;18.00;99.90;;;;;;5095134;28;20301;-83
2021/06/29 04:25:20;;;;;;;4.07;2.50;;;18.10;99.90;;;;;;5095087;28;20207;-82
2021/06/29 04:27:48;;;;;;;2.73;2.13;;;18.20;99.90;;;;;;5094954;28;20632;-83
2021/06/29 04:30:16;;;;;;;6.13;2.20;;;18.20;99.90;;;;;;5095158;28;20238;-85
2021/06/29 04:32:43;;;;;;;3.17;2.17;;;18.20;99.90;;;;;;5094557;28;20309;-83
2021/06/29 04:35:11;;;;;;;6.23;2.43;;;18.20;99.90;;;;;;5095291;28;20241;-86
2021/06/29 04:37:38;;;;;;;5.80;2.30;;;18.40;99.90;;;;;;5094824;28;20717;-83
2021/06/29 04:40:06;;;;;;;5.47;4.03;;;18.50;99.90;;;;;;5099880;28;20225;-83
2021/06/29 04:42:33;;;;;;;8.17;5.37;;;18.40;99.90;;;;;;5115010;28;20721;-84
2021/06/29 04:45:01;;;;;;;11.60;7.07;;;18.40;99.90;;;;;;5115673;28;20213;-82
2021/06/29 04:47:29;;;;;;;15.10;9.73;;;18.40;99.90;;;;;;5115021;28;20335;-83
2021/06/29 04:49:57;;;;;;;21.60;12.13;;;18.40;99.90;;;;;;5115482;28;20241;-83
2021/06/29 04:52:24;;;;;;;18.57;12.47;;;18.40;99.90;;;;;;5115157;28;20216;-84
2021/06/29 04:54:51;;;;;;;22.23;12.70;;;18.30;99.90;;;;;;5115110;28;20202;-82
2021/06/29 04:57:18;;;;;;;20.07;11.33;;;18.30;99.90;;;;;;5114903;28;20293;-83
2021/06/29 04:59:46;;;;;;;17.10;10.53;;;18.30;99.90;;;;;;5114781;28;20640;-84
2021/06/29 05:02:14;;;;;;;13.30;8.60;;;18.30;99.90;;;;;;5114973;28;20209;-84
2021/06/29 05:04:41;;;;;;;11.17;6.80;;;18.30;99.90;;;;;;5114814;28;20206;-83
2021/06/29 05:07:08;;;;;;;9.80;6.37;;;18.20;99.90;;;;;;5114875;28;20194;-83
2021/06/29 05:09:35;;;;;;;12.40;5.70;;;18.20;99.90;;;;;;5114848;28;20237;-82
2021/06/29 05:12:02;;;;;;;10.70;5.57;;;18.30;99.90;;;;;;5115129;28;20251;-83
2021/06/29 05:14:29;;;;;;;10.20;5.50;;;18.30;99.90;;;;;;5114072;28;20767;-84
2021/06/29 05:16:56;;;;;;;9.73;5.67;;;18.30;99.90;;;;;;5103454;28;20293;-83
2021/06/29 05:19:24;;;;;;;8.03;4.70;;;18.40;99.90;;;;;;5097217;28;20241;-84
2021/06/29 05:21:51;;;;;;;11.23;5.70;;;18.60;99.90;;;;;;5107685;28;20262;-82
2021/06/29 05:24:18;;;;;;;12.40;6.40;;;18.60;99.90;;;;;;5093677;28;20310;-84
2021/06/29 05:26:45;;;;;;;10.93;6.50;;;18.70;99.90;;;;;;5093409;28;20578;-82
2021/06/29 05:29:12;;;;;;;9.00;6.23;;;18.80;99.90;;;;;;5092800;28;20776;-82
2021/06/29 05:31:39;;;;;;;11.30;5.80;;;18.70;99.90;;;;;;5093257;28;20653;-85
2021/06/29 05:34:06;;;;;;;10.87;6.13;;;18.80;99.90;;;;;;5093775;28;20254;-82
2021/06/29 05:36:35;;;;;;;7.70;4.90;;;18.90;99.90;;;;;;5093567;28;20225;-83
2021/06/29 05:39:02;;;;;;;7.90;4.70;;;18.90;99.90;;;;;;5093447;28;20617;-82
2021/06/29 05:41:29;;;;;;;7.80;5.13;;;19.10;99.90;;;;;;5110089;28;20247;-81
2021/06/29 05:43:56;;;;;;;7.47;4.80;;;19.30;99.90;;;;;;5113963;28;20226;-83
2021/06/29 05:46:23;;;;;;;10.03;4.77;;;19.40;99.90;;;;;;5093512;28;20730;-81
2021/06/29 05:48:52;;;;;;;12.03;4.30;;;19.50;99.90;;;;;;5096696;28;20750;-82
2021/06/29 05:51:19;;;;;;;8.07;4.40;;;19.80;99.90;;;;;;5092414;28;20604;-83
2021/06/29 05:53:48;;;;;;;8.60;4.20;;;20.00;99.90;;;;;;5092380;28;20218;-81
2021/06/29 05:56:15;;;;;;;6.77;4.23;;;20.20;99.90;;;;;;5092610;28;20207;-81
2021/06/29 05:58:42;;;;;;;5.73;3.73;;;20.40;99.90;;;;;;5093014;28;20268;-82
2021/06/29 06:01:09;;;;;;;8.37;3.40;;;20.60;99.90;;;;;;5111916;28;20198;-83
2021/06/29 06:03:36;;;;;;;9.10;3.47;;;21.00;99.90;;;;;;5113044;28;20292;-83
2021/06/29 06:06:04;;;;;;;10.57;3.40;;;21.70;99.90;;;;;;5112866;28;20284;-81
2021/06/29 06:08:30;;;;;;;7.72;3.15;;;22.80;99.90;;;;;;5113052;28;20200;-82
2021/06/29 06:10:59;;;;;;;10.13;3.20;;;23.60;99.90;;;;;;5102396;28;20619;-82
2021/06/29 06:13:26;;;;;;;11.15;3.40;;;23.80;99.90;;;;;;5092566;28;20250;-84
2021/06/29 06:15:54;;;;;;;10.73;3.58;;;23.70;99.90;;;;;;5092172;28;20251;-80
2021/06/29 06:18:21;;;;;;;6.97;3.42;;;23.70;99.90;;;;;;5091070;28;20345;-84
2021/06/29 06:20:48;;;;;;;5.13;3.40;;;23.70;99.90;;;;;;5098792;28;20203;-81
2021/06/29 06:23:16;;;;;;;10.57;4.00;;;23.90;99.90;;;;;;5092192;28;20198;-81
2021/06/29 06:25:43;;;;;;;5.03;3.40;;;24.30;99.90;;;;;;5097362;28;20258;-83
2021/06/29 06:28:11;;;;;;;8.57;3.80;;;25.10;99.90;;;;;;5091902;28;20199;-81
2021/06/29 06:30:40;;;;;;;8.18;3.80;;;25.70;99.90;;;;;;5097592;28;20300;-82
2021/06/29 06:33:07;;;;;;;7.25;3.95;;;25.90;99.90;;;;;;5095374;28;20305;-83
2021/06/29 06:35:35;;;;;;;9.18;4.13;;;26.50;99.90;;;;;;5097478;28;20203;-80
2021/06/29 06:38:02;;;;;;;6.57;4.10;;;26.80;99.90;;;;;;5100069;28;20202;-81
2021/06/29 06:40:29;;;;;;;6.40;3.88;;;27.10;99.90;;;;;;5109162;28;20314;-82
2021/06/29 06:42:56;;;;;;;9.50;3.55;;;26.90;99.90;;;;;;5095348;28;20200;-81
2021/06/29 06:45:24;;;;;;;6.45;3.65;;;26.70;99.90;;;;;;5096398;28;20195;-83
2021/06/29 06:47:51;;;;;;;6.35;3.83;;;26.50;99.90;;;;;;5095745;28;20256;-80
2021/06/29 06:50:19;;;;;;;7.82;4.18;;;26.40;99.90;;;;;;5096083;28;20669;-82
2021/06/29 06:52:45;;;;;;;6.63;3.50;;;26.30;99.90;;;;;;5096980;28;20203;-79
2021/06/29 06:55:13;;;;;;;5.03;4.20;;;26.40;99.90;;;;;;5103269;28;20221;-80
2021/06/29 06:57:42;;;;;;;5.90;3.85;;;26.30;99.90;;;;;;5096415;28;20219;-81
2021/06/29 07:00:10;;;;;;;4.18;3.78;;;26.40;99.90;;;;;;5096141;28;20286;-81
2021/06/29 07:02:40;;;;;;;5.47;3.65;;;26.90;99.90;;;;;;5095561;28;20724;-80
2021/06/29 07:05:08;;;;;;;8.93;3.90;;;28.10;99.90;;;;;;5095787;28;20199;-82
2021/06/29 07:07:36;;;;;;;6.85;3.60;;;28.90;99.90;;;;;;5095694;28;20199;-80
2021/06/29 07:10:03;;;;;;;9.63;3.60;;;28.60;99.90;;;;;;5095780;28;20234;-82
2021/06/29 07:12:30;;;;;;;6.03;4.15;;;28.00;99.90;;;;;;5095418;28;20619;-80
2021/06/29 07:14:57;;;;;;;5.72;3.90;;;27.50;99.90;;;;;;5096723;28;20760;-81
2021/06/29 07:17:24;;;;;;;7.25;4.25;;;26.80;99.90;;;;;;5095550;28;20251;-82
2021/06/29 07:19:53;;;;;;;4.72;4.18;;;26.30;99.90;;;;;;5095934;28;20234;-80
2021/06/29 07:22:20;;;;;;;8.23;4.18;;;26.20;99.90;;;;;;5096143;28;20608;-79
2021/06/29 07:24:47;;;;;;;8.13;4.57;;;26.10;99.90;;;;;;5095438;28;20203;-80
2021/06/29 07:27:14;;;;;;;7.13;4.72;;;26.40;99.90;;;;;;5096076;28;20203;-82
2021/06/29 07:29:41;;;;;;;8.32;4.90;;;26.60;99.90;;;;;;5095441;28;20285;-82
2021/06/29 07:32:09;;;;;;;5.93;4.80;;;26.50;99.90;;;;;;5095124;28;20195;-83
2021/06/29 07:34:36;;;;;;;9.25;5.38;;;26.10;99.90;;;;;;5095259;28;20684;-82
2021/06/29 07:37:05;;;;;;;5.13;4.53;;;25.90;99.90;;;;;;5095214;28;20287;-80
2021/06/29 07:39:32;;;;;;;6.45;5.72;;;25.60;99.90;;;;;;5095311;28;20708;-82
2021/06/29 07:41:59;;;;;;;6.78;5.53;;;25.30;99.90;;;;;;5095440;28;20206;-81
2021/06/29 07:44:26;;;;;;;10.18;5.45;;;25.10;99.90;;;;;;5095268;28;20199;-81
2021/06/29 07:46:54;;;;;;;7.00;5.72;;;25.00;99.90;;;;;;5093917;28;20230;-81
2021/06/29 07:49:21;;;;;;;8.38;6.05;;;25.10;99.90;;;;;;5095113;28;20198;-81
2021/06/29 07:51:48;;;;;;;13.18;5.88;;;25.00;99.90;;;;;;5094483;28;20201;-81
2021/06/29 07:54:17;;;;;;;14.82;6.25;;;24.90;99.90;;;;;;5095711;28;20223;-80
2021/06/29 07:56:44;;;;;;;9.15;5.97;;;24.60;99.90;;;;;;5095138;28;20242;-81
2021/06/29 07:59:11;;;;;;;7.78;6.35;;;24.60;99.90;;;;;;5094466;28;20207;-81
2021/06/29 08:01:38;;;;;;;16.55;7.25;;;24.40;99.90;;;;;;5094659;28;20227;-82
2021/06/29 08:04:05;;;;;;;11.50;5.97;;;24.50;99.90;;;;;;5092958;28;20281;-81
2021/06/29 08:06:32;;;;;;;8.80;7.00;;;24.60;99.90;;;;;;5093004;28;20226;-79
2021/06/29 08:08:59;;;;;;;11.23;6.82;;;24.80;99.90;;;;;;5093512;28;20264;-81
2021/06/29 08:11:28;;;;;;;11.80;7.13;;;24.90;99.90;;;;;;5094997;28;20233;-80
2021/06/29 08:13:55;;;;;;;13.65;7.63;;;24.90;99.90;;;;;;5094273;28;20242;-80
2021/06/29 08:16:22;;;;;;;11.10;7.20;;;24.80;99.90;;;;;;5093848;28;20285;-81
2021/06/29 08:18:49;;;;;;;10.93;7.78;;;24.60;99.90;;;;;;5093524;28;20295;-80
2021/06/29 08:21:16;;;;;;;12.27;7.18;;;24.60;99.90;;;;;;5089962;28;20660;-80
2021/06/29 08:23:43;;;;;;;10.57;7.65;;;24.90;99.90;;;;;;5094483;28;20219;-80
2021/06/29 08:26:09;;;;;;;12.90;7.45;;;25.10;99.90;;;;;;5094565;28;20229;-80
2021/06/29 08:28:38;;;;;;;10.77;7.68;;;25.10;99.90;;;;;;5093502;28;20708;-81
2021/06/29 08:31:05;;;;;;;10.45;7.80;;;25.10;99.90;;;;;;5093584;28;20624;-81
2021/06/29 08:33:33;;;;;;;10.73;8.02;;;24.90;99.90;;;;;;5093260;28;20705;-78
2021/06/29 08:36:00;;;;;;;12.98;8.85;;;25.00;99.90;;;;;;5093961;28;20273;-80
2021/06/29 08:38:27;;;;;;;14.68;8.00;;;24.90;99.90;;;;;;5089565;28;20565;-80
2021/06/29 08:40:54;;;;;;;11.82;7.70;;;24.90;99.90;;;;;;5101187;28;20644;-80
2021/06/29 08:43:20;;;;;;;10.10;7.97;;;24.80;99.90;;;;;;5096780;28;20210;-80
2021/06/29 08:45:49;;;;;;;13.05;8.70;;;24.40;99.90;;;;;;5088259;28;20190;-81
2021/06/29 08:48:18;;;;;;;13.23;9.25;;;24.50;99.90;;;;;;5092089;28;20191;-81
2021/06/29 08:50:45;;;;;;;11.32;8.48;;;24.30;99.90;;;;;;5113161;28;20202;-81
2021/06/29 08:53:13;;;;;;;11.35;9.13;;;24.60;99.90;;;;;;5107695;28;20693;-82
2021/06/29 08:55:43;;;;;;;9.38;8.38;;;24.90;99.90;;;;;;5093473;28;20260;-80
2021/06/29 08:58:10;;;;;;;13.38;8.02;;;25.10;99.90;;;;;;5094256;28;20214;-81
2021/06/29 09:00:38;;;;;;;9.60;8.48;;;25.30;99.90;;;;;;5101000;28;20236;-79
2021/06/29 09:03:07;;;;;;;9.63;7.60;;;25.30;99.90;;;;;;5119133;28;20218;-80
2021/06/29 09:05:34;;;;;;;9.23;8.02;;;25.90;99.90;;;;;;5097960;28;20274;-80
2021/06/29 09:08:07;;;;;;;10.77;7.68;;;26.20;99.90;;;;;;5094971;28;20281;-81
2021/06/29 09:10:35;;;;;;;12.38;8.48;;;26.60;99.90;;;;;;5096153;28;20211;-81
2021/06/29 09:13:02;;;;;;;11.18;7.28;;;29.20;99.90;;;;;;5094067;28;20686;-80
2021/06/29 09:15:42;;;;;;;9.90;7.70;;;30.50;99.90;;;;;;5104533;28;20301;-81
2021/06/29 09:18:17;;;;;;;7.28;6.55;;;29.70;99.90;;;;;;5092448;28;20253;-81
2021/06/29 09:20:48;;;;;;;8.93;6.35;;;29.20;99.90;;;;;;5101303;28;20618;-79
2021/06/29 09:23:17;;;;;;;6.70;6.00;;;29.50;99.90;;;;;;5107474;28;20214;-80
2021/06/29 09:25:47;;;;;;;10.20;6.35;;;31.80;99.90;;;;;;5117323;28;20190;-80
2021/06/29 09:28:16;;;;;;;7.15;6.32;;;33.70;99.90;;;;;;5097471;28;20199;-81
2021/06/29 09:30:46;;;;;;;8.68;6.60;;;32.70;99.90;;;;;;5083630;28;20187;-80
2021/06/29 09:33:17;;;;;;;6.97;6.07;;;31.90;99.90;;;;;;5096280;28;20202;-81
2021/06/29 09:35:48;;;;;;;8.95;6.50;;;31.50;99.90;;;;;;5094393;28;20214;-81
2021/06/29 09:38:21;;;;;;;7.07;6.38;;;32.10;99.90;;;;;;5094401;28;20244;-81
2021/06/29 09:40:55;;;;;;;8.98;6.32;;;32.90;99.90;;;;;;5093379;28;20195;-80
2021/06/29 09:43:24;;;;;;;10.45;6.13;;;32.90;99.90;;;;;;5093617;28;20238;-79
2021/06/29 09:45:54;;;;;;;10.70;6.85;;;32.40;99.90;;;;;;5100112;28;20198;-80
2021/06/29 09:48:33;;;;;;;11.18;6.07;;;31.40;99.90;;;;;;5094119;28;20206;-81
2021/06/29 09:51:04;;;;;;;11.30;5.88;;;31.30;99.90;;;;;;5092704;28;20194;-79
2021/06/29 09:53:34;;;;;;;12.23;5.85;;;32.70;99.90;;;;;;5094901;28;20563;-80
2021/06/29 09:56:03;;;;;;;6.82;6.10;;;33.60;99.90;;;;;;5111558;28;20226;-80
2021/06/29 09:58:33;;;;;;;7.45;5.72;;;33.40;99.90;;;;;;5089784;28;20593;-82
2021/06/29 10:01:01;;;;;;;8.55;6.40;;;33.10;99.90;;;;;;5095840;28;20278;-82
2021/06/29 10:03:33;;;;;;;8.95;6.05;;;32.90;99.90;;;;;;5110502;28;20225;-81
2021/06/29 10:06:02;;;;;;;8.02;6.40;;;32.60;99.90;;;;;;5091893;28;20567;-80
2021/06/29 10:08:34;;;;;;;9.52;6.82;;;32.10;99.90;;;;;;5092628;28;20198;-79
2021/06/29 10:11:21;;;;;;;8.00;6.82;;;34.10;99.90;;;;;;5091530;28;20294;-76
2021/06/29 10:13:51;;;;;;;10.73;6.18;;;34.20;99.90;;;;;;5090929;28;20617;-76
2021/06/29 10:16:21;;;;;;;11.25;6.40;;;34.40;99.90;;;;;;5094839;28;20191;-76
2021/06/29 10:18:54;;;;;;;10.57;6.55;;;33.90;99.90;;;;;;5095878;28;20297;-78
2021/06/29 10:21:23;;;;;;;8.55;6.25;;;33.80;99.90;;;;;;5097126;28;20205;-79
2021/06/29 10:23:55;;;;;;;11.85;6.72;;;33.20;99.90;;;;;;5107458;28;20201;-79
2021/06/29 10:26:24;;;;;;;7.57;6.50;;;34.10;99.90;;;;;;5100533;28;20289;-78
2021/06/29 10:28:52;;;;;;;8.27;5.90;;;36.20;99.90;;;;;;5099499;28;20278;-79
2021/06/29 10:31:22;;;;;;;7.22;6.45;;;37.60;99.90;;;;;;5102613;28;20287;-79
2021/06/29 10:33:51;;;;;;;10.73;7.15;;;36.60;99.90;;;;;;5100772;28;20222;-79
2021/06/29 10:36:19;;;;;;;9.30;6.22;;;34.90;99.90;;;;;;5098918;28;20274;-80
2021/06/29 10:38:47;;;;;;;6.95;6.22;;;33.80;99.90;;;;;;5116815;28;20270;-78
2021/06/29 10:41:14;;;;;;;10.40;6.85;;;33.10;99.90;;;;;;5104771;28;20298;-80
2021/06/29 10:43:42;;;;;;;10.82;7.13;;;32.60;99.90;;;;;;5102715;28;20191;-79
2021/06/29 10:46:16;;;;;;;7.65;6.32;;;32.10;99.90;;;;;;5105432;28;20203;-79
2021/06/29 10:48:43;;;;;;;9.23;6.03;;;32.10;99.90;;;;;;5094644;28;20215;-79
2021/06/29 10:51:14;;;;;;;8.77;6.53;;;33.70;99.90;;;;;;5094218;28;20611;-81
2021/06/29 10:53:44;;;;;;;7.95;5.68;;;35.40;99.90;;;;;;5095214;28;20198;-80
2021/06/29 10:56:16;;;;;;;7.80;6.95;;;36.40;99.90;;;;;;5094065;28;20207;-79
2021/06/29 10:58:45;;;;;;;7.72;6.88;;;35.40;99.90;;;;;;5095535;28;20195;-79
2021/06/29 11:01:25;;;;;;;7.32;6.07;;;33.50;99.90;;;;;;5095292;28;20728;-81
2021/06/29 11:03:53;;;;;;;9.80;6.45;;;32.20;99.90;;;;;;5095377;28;20252;-79
2021/06/29 11:06:48;;;;;;;6.32;5.53;;;33.10;99.90;;;;;;5095094;28;20233;-80
2021/06/29 11:09:19;;;;;;;8.50;5.57;;;34.70;99.90;;;;;;5054039;28;20230;-80
2021/06/29 11:12:21;;;;;;;6.95;5.32;;;36.40;99.90;;;;;;5095188;28;20183;-80
2021/06/29 11:14:50;;;;;;;7.78;6.22;;;36.40;99.90;;;;;;5094103;28;20210;-81
2021/06/29 11:17:17;;;;;;;9.05;7.60;;;35.10;99.90;;;;;;5092321;28;20261;-80
2021/06/29 11:20:08;;;;;;;13.90;7.93;;;33.20;99.90;;;;;;5092470;28;20282;-80
2021/06/29 11:22:55;;;;;;;10.93;7.72;;;31.20;99.90;;;;;;5091393;28;20232;-80
2021/06/29 11:25:37;;;;;;;9.60;7.32;;;29.40;99.90;;;;;;5092430;28;20195;-80
2021/06/29 11:28:07;;;;;;;8.68;6.82;;;29.20;99.90;;;;;;5092732;28;20401;-79
2021/06/29 11:31:07;;;;;;;8.95;6.13;;;31.50;99.90;;;;;;5094442;28;20289;-79
2021/06/29 11:33:54;;;;;;;9.52;5.90;;;35.20;99.90;;;;;;5094661;28;20202;-79
2021/06/29 11:36:53;;;;;;;10.25;7.50;;;36.80;99.90;;;;;;5092813;28;20219;-80
2021/06/29 11:39:36;;;;;;;12.02;8.65;;;37.90;99.90;;;;;;5094260;28;20198;-80
2021/06/29 11:42:24;;;;;;;10.57;8.65;;;36.20;99.90;;;;;;5089936;28;20728;-80
2021/06/29 11:44:54;;;;;;;13.77;8.75;;;33.60;99.90;;;;;;5091595;28;20213;-83
2021/06/29 11:47:23;;;;;;;12.27;10.13;;;31.80;99.90;;;;;;5093601;28;20199;-79
2021/06/29 11:49:53;;;;;;;13.45;10.60;;;29.80;99.90;;;;;;5092377;28;20211;-76
2021/06/29 11:52:31;;;;;;;15.38;10.50;;;28.60;99.90;;;;;;5094779;28;20194;-78
2021/06/29 11:55:04;;;;;;;17.80;11.55;;;28.40;99.90;;;;;;5091929;28;20218;-80
2021/06/29 11:57:34;;;;;;;17.30;10.88;;;28.40;99.90;;;;;;5096756;28;20238;-79
2021/06/29 12:00:07;;;;;;;13.07;10.75;;;28.40;99.90;;;;;;5102877;28;20210;-79
2021/06/29 12:02:35;;;;;;;17.05;11.48;;;28.70;99.90;;;;;;5102431;28;20211;-80
2021/06/29 12:05:05;;;;;;;19.38;12.63;;;27.50;99.90;;;;;;5097450;28;20282;-78
2021/06/29 12:07:42;;;;;;;16.55;12.10;;;25.70;99.90;;;;;;5092400;28;20282;-78
2021/06/29 12:10:14;;;;;;;17.85;12.07;;;26.50;99.90;;;;;;5087398;28;20226;-77
2021/06/29 12:12:43;;;;;;;15.70;12.20;;;27.90;99.90;;;;;;5075587;28;20234;-78
2021/06/29 12:15:13;;;;;;;15.38;11.55;;;30.30;99.90;;;;;;5093554;28;20229;-78
2021/06/29 12:17:46;;;;;;;15.00;12.05;;;32.00;99.90;;;;;;5092763;28;20203;-77
2021/06/29 12:20:15;;;;;;;16.23;10.52;;;31.90;99.90;;;;;;5095781;28;20237;-82
2021/06/29 12:22:43;;;;;;;14.95;10.55;;;32.00;99.90;;;;;;5094271;28;20264;-79
2021/06/29 12:25:19;;;;;;;17.05;10.75;;;31.70;99.90;;;;;;5093512;28;20203;-79
2021/06/29 12:27:47;;;;;;;13.40;10.85;;;31.40;99.90;;;;;;5099531;28;20244;-78
2021/06/29 12:30:27;;;;;;;14.60;10.30;;;30.90;99.90;;;;;;5093544;28;20256;-78
2021/06/29 12:32:54;;;;;;;14.82;10.98;;;30.60;99.90;;;;;;5100353;28;20232;-79
2021/06/29 12:35:22;;;;;;;14.27;10.50;;;30.20;99.90;;;;;;5094416;28;20222;-81
2021/06/29 12:37:59;;;;;;;18.45;11.00;;;30.10;99.90;;;;;;5100005;28;20202;-78
2021/06/29 12:40:29;;;;;;;15.25;11.13;;;30.40;99.90;;;;;;5098851;28;20192;-80
2021/06/29 12:42:57;;;;;;;13.32;10.38;;;31.70;99.90;;;;;;5092396;28;20611;-78
2021/06/29 12:45:29;;;;;;;13.07;10.23;;;33.30;99.90;;;;;;5101176;28;20194;-79
2021/06/29 12:48:05;;;;;;;14.23;11.45;;;33.90;99.90;;;;;;5096446;28;20512;-78